IFL2121 EDDB-LIRF
Flight info
| Callsign | IFL2121 |
|---|---|
| Flight time | 1h 52m |
| Altitude | 34000 |
| Route | LUROS Y211 BEBKU Z36 MAREM DCT YUJKI DCT PEMEL DCT RUDAP DCT SIMBA/N0450F330 DCT OBEDI DCT CHI DCT EKTUK DCT GAVRA DCT RITEB |
| Aircraft | A321/M-SDE3FGHIRWY/LB1 |
Departure
| Time | 2026-05-05 20:24 |
|---|---|
| Airport | Berlin Brandenburg Airport (EDDB) |
Arrival
| Time | 2026-05-05 22:16 |
|---|---|
| Airport | Rome–Fiumicino Leonardo da Vinci International Airport (LIRF) |
| Time | Latitude | Longitude | Altitude | Speed | Heading |
|---|---|---|---|---|---|
| 2026-05-05 19:47 | 52.36150 | 13.51419 | 155 ft | 0 kts | 339° |
| 2026-05-05 20:12 | 52.36141 | 13.51424 | 154 ft | 4 kts | 339° |
| 2026-05-05 20:12 | 52.36116 | 13.51440 | 154 ft | 4 kts | 339° |
| 2026-05-05 20:12 | 52.36092 | 13.51457 | 154 ft | 4 kts | 317° |
| 2026-05-05 20:12 | 52.36080 | 13.51491 | 154 ft | 4 kts | 271° |
| 2026-05-05 20:13 | 52.36081 | 13.51514 | 154 ft | 0 kts | 249° |
| 2026-05-05 20:15 | 52.36079 | 13.51505 | 154 ft | 4 kts | 249° |
| 2026-05-05 20:16 | 52.36058 | 13.51418 | 154 ft | 10 kts | 249° |
| 2026-05-05 20:16 | 52.36035 | 13.51319 | 154 ft | 8 kts | 249° |
| 2026-05-05 20:16 | 52.36014 | 13.51227 | 154 ft | 11 kts | 249° |
| 2026-05-05 20:16 | 52.35983 | 13.51097 | 154 ft | 12 kts | 248° |
| 2026-05-05 20:17 | 52.35955 | 13.50982 | 154 ft | 10 kts | 248° |
| 2026-05-05 20:17 | 52.35932 | 13.50886 | 154 ft | 8 kts | 249° |
| 2026-05-05 20:17 | 52.35913 | 13.50808 | 154 ft | 8 kts | 249° |
| 2026-05-05 20:17 | 52.35889 | 13.50709 | 154 ft | 9 kts | 249° |
| 2026-05-05 20:18 | 52.35858 | 13.50637 | 154 ft | 7 kts | 210° |
| 2026-05-05 20:18 | 52.35807 | 13.50637 | 154 ft | 8 kts | 176° |
| 2026-05-05 20:18 | 52.35767 | 13.50589 | 154 ft | 8 kts | 239° |
| 2026-05-05 20:18 | 52.35733 | 13.50460 | 154 ft | 16 kts | 248° |
| 2026-05-05 20:19 | 52.35686 | 13.50258 | 154 ft | 19 kts | 249° |
| 2026-05-05 20:19 | 52.35639 | 13.50061 | 154 ft | 18 kts | 248° |
| 2026-05-05 20:19 | 52.35596 | 13.49880 | 154 ft | 16 kts | 249° |
| 2026-05-05 20:19 | 52.35558 | 13.49717 | 154 ft | 15 kts | 249° |
| 2026-05-05 20:20 | 52.35523 | 13.49568 | 154 ft | 15 kts | 249° |
| 2026-05-05 20:20 | 52.35477 | 13.49375 | 154 ft | 21 kts | 249° |
| 2026-05-05 20:20 | 52.35426 | 13.49162 | 154 ft | 19 kts | 248° |
| 2026-05-05 20:20 | 52.35380 | 13.48967 | 154 ft | 18 kts | 249° |
| 2026-05-05 20:21 | 52.35337 | 13.48787 | 154 ft | 16 kts | 249° |
| 2026-05-05 20:21 | 52.35299 | 13.48628 | 154 ft | 13 kts | 249° |
| 2026-05-05 20:21 | 52.35270 | 13.48507 | 154 ft | 10 kts | 242° |
| 2026-05-05 20:21 | 52.35217 | 13.48479 | 154 ft | 7 kts | 168° |
| 2026-05-05 20:22 | 52.35172 | 13.48508 | 154 ft | 8 kts | 158° |
| 2026-05-05 20:22 | 52.35107 | 13.48586 | 154 ft | 14 kts | 116° |
| 2026-05-05 20:22 | 52.35090 | 13.48733 | 154 ft | 13 kts | 97° |
| 2026-05-05 20:22 | 52.35078 | 13.48869 | 154 ft | 11 kts | 97° |
| 2026-05-05 20:23 | 52.35065 | 13.48990 | 154 ft | 10 kts | 103° |
| 2026-05-05 20:23 | 52.35077 | 13.49094 | 154 ft | 9 kts | 68° |
| 2026-05-05 20:23 | 52.35127 | 13.49296 | 154 ft | 44 kts | 68° |
| 2026-05-05 20:23 | 52.35322 | 13.50123 | 155 ft | 109 kts | 69° |
| 2026-05-05 20:24 | 52.35666 | 13.51560 | 160 ft | 159 kts | 69° |
| 2026-05-05 20:24 | 52.36075 | 13.53303 | 662 ft | 163 kts | 66° |
| 2026-05-05 20:24 | 52.36289 | 13.55108 | 1337 ft | 165 kts | 94° |
| 2026-05-05 20:24 | 52.35740 | 13.56745 | 1882 ft | 175 kts | 137° |
| 2026-05-05 20:25 | 52.34579 | 13.57603 | 2187 ft | 190 kts | 157° |
| 2026-05-05 20:25 | 52.33293 | 13.58321 | 2456 ft | 203 kts | 158° |
| 2026-05-05 20:25 | 52.31954 | 13.59106 | 2811 ft | 209 kts | 153° |
| 2026-05-05 20:25 | 52.30931 | 13.60743 | 3195 ft | 207 kts | 109° |
| 2026-05-05 20:26 | 52.30806 | 13.63025 | 3515 ft | 213 kts | 77° |
| 2026-05-05 20:26 | 52.31271 | 13.65417 | 3727 ft | 227 kts | 71° |
| 2026-05-05 20:26 | 52.31780 | 13.67883 | 4274 ft | 230 kts | 71° |
| 2026-05-05 20:26 | 52.32288 | 13.70385 | 4872 ft | 234 kts | 72° |
| 2026-05-05 20:27 | 52.32784 | 13.72938 | 5419 ft | 238 kts | 77° |
| 2026-05-05 20:27 | 52.32866 | 13.75740 | 5606 ft | 259 kts | 103° |
| 2026-05-05 20:27 | 52.32046 | 13.78395 | 5993 ft | 269 kts | 135° |
| 2026-05-05 20:27 | 52.30470 | 13.80008 | 6564 ft | 271 kts | 166° |
| 2026-05-05 20:28 | 52.28594 | 13.80187 | 7160 ft | 273 kts | 184° |
| 2026-05-05 20:28 | 52.26706 | 13.79980 | 7813 ft | 274 kts | 185° |
| 2026-05-05 20:28 | 52.24794 | 13.79746 | 8431 ft | 277 kts | 185° |
| 2026-05-05 20:28 | 52.22860 | 13.79506 | 9048 ft | 280 kts | 185° |
| 2026-05-05 20:29 | 52.20914 | 13.79268 | 9684 ft | 281 kts | 185° |
| 2026-05-05 20:29 | 52.18937 | 13.79036 | 10078 ft | 292 kts | 184° |
| 2026-05-05 20:29 | 52.16842 | 13.78795 | 10204 ft | 311 kts | 185° |
| 2026-05-05 20:29 | 52.14623 | 13.78541 | 10324 ft | 328 kts | 184° |
| 2026-05-05 20:30 | 52.12294 | 13.78274 | 10574 ft | 340 kts | 185° |
| 2026-05-05 20:30 | 52.09945 | 13.78002 | 11027 ft | 345 kts | 185° |
| 2026-05-05 20:30 | 52.07540 | 13.77729 | 11562 ft | 348 kts | 185° |
| 2026-05-05 20:30 | 52.05116 | 13.77459 | 12096 ft | 350 kts | 185° |
| 2026-05-05 20:31 | 52.02673 | 13.77186 | 12635 ft | 353 kts | 185° |
| 2026-05-05 20:31 | 52.00210 | 13.76912 | 13186 ft | 356 kts | 185° |
| 2026-05-05 20:31 | 51.97737 | 13.76640 | 13715 ft | 358 kts | 185° |
| 2026-05-05 20:31 | 51.95245 | 13.76365 | 14186 ft | 360 kts | 185° |
| 2026-05-05 20:32 | 51.92731 | 13.76085 | 14679 ft | 361 kts | 185° |
| 2026-05-05 20:32 | 51.91065 | 13.75896 | 14981 ft | 362 kts | 185° |
| 2026-05-05 20:32 | 51.88542 | 13.75612 | 15447 ft | 364 kts | 185° |
| 2026-05-05 20:32 | 51.85178 | 13.75237 | 16031 ft | 367 kts | 185° |
| 2026-05-05 20:33 | 51.83454 | 13.75046 | 16336 ft | 368 kts | 185° |
| 2026-05-05 20:33 | 51.80895 | 13.74762 | 16782 ft | 370 kts | 185° |
| 2026-05-05 20:33 | 51.78322 | 13.74480 | 17219 ft | 372 kts | 185° |
| 2026-05-05 20:33 | 51.75734 | 13.74199 | 17624 ft | 374 kts | 185° |
| 2026-05-05 20:34 | 51.73130 | 13.73913 | 18033 ft | 376 kts | 185° |
| 2026-05-05 20:34 | 51.70519 | 13.73623 | 18368 ft | 377 kts | 185° |
| 2026-05-05 20:34 | 51.67929 | 13.73332 | 18687 ft | 379 kts | 185° |
| 2026-05-05 20:34 | 51.65286 | 13.73036 | 19005 ft | 381 kts | 185° |
| 2026-05-05 20:35 | 51.62633 | 13.72742 | 19332 ft | 382 kts | 185° |
| 2026-05-05 20:35 | 51.59975 | 13.72448 | 19671 ft | 384 kts | 185° |
| 2026-05-05 20:35 | 51.57305 | 13.72151 | 20017 ft | 385 kts | 185° |
| 2026-05-05 20:35 | 51.54625 | 13.71855 | 20362 ft | 387 kts | 185° |
| 2026-05-05 20:36 | 51.51933 | 13.71558 | 20711 ft | 389 kts | 185° |
| 2026-05-05 20:36 | 51.49230 | 13.71262 | 21067 ft | 390 kts | 185° |
| 2026-05-05 20:36 | 51.46517 | 13.70967 | 21401 ft | 392 kts | 185° |
| 2026-05-05 20:36 | 51.43780 | 13.70669 | 21735 ft | 394 kts | 185° |
| 2026-05-05 20:37 | 51.41032 | 13.70368 | 22081 ft | 396 kts | 185° |
| 2026-05-05 20:37 | 51.38276 | 13.70069 | 22427 ft | 398 kts | 185° |
| 2026-05-05 20:37 | 51.35503 | 13.69769 | 22783 ft | 400 kts | 185° |
| 2026-05-05 20:37 | 51.32717 | 13.69466 | 23147 ft | 402 kts | 186° |
| 2026-05-05 20:38 | 51.29921 | 13.69158 | 23477 ft | 404 kts | 186° |
| 2026-05-05 20:38 | 51.27109 | 13.68846 | 23777 ft | 406 kts | 186° |
| 2026-05-05 20:38 | 51.24322 | 13.68538 | 24075 ft | 407 kts | 186° |
| 2026-05-05 20:38 | 51.21486 | 13.68227 | 24355 ft | 409 kts | 185° |
| 2026-05-05 20:39 | 51.18644 | 13.67919 | 24646 ft | 410 kts | 185° |
| 2026-05-05 20:39 | 51.15790 | 13.67616 | 24939 ft | 412 kts | 185° |
| 2026-05-05 20:39 | 51.12927 | 13.67314 | 25233 ft | 413 kts | 185° |
| 2026-05-05 20:39 | 51.10055 | 13.67010 | 25524 ft | 414 kts | 185° |
| 2026-05-05 20:40 | 51.07170 | 13.66699 | 25816 ft | 416 kts | 186° |
| 2026-05-05 20:40 | 51.04276 | 13.66383 | 26095 ft | 417 kts | 186° |
| 2026-05-05 20:40 | 51.01375 | 13.66070 | 26373 ft | 418 kts | 186° |
| 2026-05-05 20:40 | 50.98466 | 13.65759 | 26667 ft | 419 kts | 185° |
| 2026-05-05 20:41 | 50.95552 | 13.65449 | 26953 ft | 420 kts | 185° |
| 2026-05-05 20:41 | 50.92630 | 13.65133 | 27230 ft | 422 kts | 185° |
| 2026-05-05 20:41 | 50.89695 | 13.64815 | 27488 ft | 423 kts | 185° |
| 2026-05-05 20:41 | 50.86757 | 13.64502 | 27756 ft | 424 kts | 185° |
| 2026-05-05 20:42 | 50.83803 | 13.64188 | 28006 ft | 426 kts | 185° |
| 2026-05-05 20:42 | 50.80879 | 13.63876 | 28244 ft | 427 kts | 186° |
| 2026-05-05 20:42 | 50.77913 | 13.63556 | 28474 ft | 428 kts | 186° |
| 2026-05-05 20:42 | 50.74932 | 13.63242 | 28652 ft | 430 kts | 185° |
| 2026-05-05 20:43 | 50.71935 | 13.62918 | 28838 ft | 432 kts | 187° |
| 2026-05-05 20:43 | 50.68963 | 13.62240 | 29019 ft | 433 kts | 190° |
| 2026-05-05 20:43 | 50.65986 | 13.61480 | 29215 ft | 434 kts | 190° |
| 2026-05-05 20:43 | 50.63009 | 13.60723 | 29478 ft | 433 kts | 190° |
| 2026-05-05 20:44 | 50.60038 | 13.59971 | 29766 ft | 432 kts | 190° |
| 2026-05-05 20:44 | 50.57070 | 13.59220 | 30007 ft | 431 kts | 190° |
| 2026-05-05 20:44 | 50.54111 | 13.58471 | 30245 ft | 430 kts | 189° |
| 2026-05-05 20:44 | 50.51148 | 13.57722 | 30377 ft | 433 kts | 189° |
| 2026-05-05 20:45 | 50.45179 | 13.56214 | 30662 ft | 436 kts | 189° |
| 2026-05-05 20:45 | 50.42180 | 13.55459 | 30867 ft | 436 kts | 189° |
| 2026-05-05 20:45 | 50.39187 | 13.54709 | 31091 ft | 435 kts | 189° |
| 2026-05-05 20:46 | 50.36199 | 13.53962 | 31332 ft | 434 kts | 189° |
| 2026-05-05 20:46 | 50.33219 | 13.53218 | 31561 ft | 434 kts | 189° |
| 2026-05-05 20:46 | 50.30241 | 13.52476 | 31787 ft | 433 kts | 189° |
| 2026-05-05 20:46 | 50.27268 | 13.51736 | 32019 ft | 432 kts | 189° |
| 2026-05-05 20:47 | 50.24305 | 13.50996 | 32247 ft | 431 kts | 189° |
| 2026-05-05 20:47 | 50.21343 | 13.50260 | 32470 ft | 431 kts | 189° |
| 2026-05-05 20:47 | 50.18384 | 13.49529 | 32696 ft | 430 kts | 189° |
| 2026-05-05 20:47 | 50.15429 | 13.48799 | 32930 ft | 429 kts | 189° |
| 2026-05-05 20:48 | 50.12475 | 13.48069 | 33152 ft | 428 kts | 189° |
| 2026-05-05 20:48 | 50.09532 | 13.47339 | 33359 ft | 428 kts | 189° |
| 2026-05-05 20:48 | 50.06595 | 13.46609 | 33585 ft | 427 kts | 189° |
| 2026-05-05 20:48 | 50.03659 | 13.45882 | 33755 ft | 427 kts | 189° |
| 2026-05-05 20:49 | 49.97880 | 13.44457 | 33790 ft | 421 kts | 189° |
| 2026-05-05 20:49 | 49.92098 | 13.43035 | 33799 ft | 420 kts | 189° |
| 2026-05-05 20:50 | 49.86315 | 13.41625 | 33793 ft | 420 kts | 189° |
| 2026-05-05 20:50 | 49.80580 | 13.40225 | 33806 ft | 416 kts | 189° |
| 2026-05-05 20:51 | 49.74867 | 13.38830 | 33810 ft | 415 kts | 189° |
| 2026-05-05 20:51 | 49.69150 | 13.37437 | 33812 ft | 415 kts | 189° |
| 2026-05-05 20:52 | 49.63444 | 13.36045 | 33819 ft | 415 kts | 190° |
| 2026-05-05 20:52 | 49.57747 | 13.34652 | 33826 ft | 414 kts | 190° |
| 2026-05-05 20:53 | 49.52065 | 13.33279 | 33828 ft | 413 kts | 190° |
| 2026-05-05 20:53 | 49.46392 | 13.31909 | 33827 ft | 412 kts | 190° |
| 2026-05-05 20:54 | 49.40728 | 13.30543 | 33825 ft | 411 kts | 191° |
| 2026-05-05 20:54 | 49.35126 | 13.29192 | 33831 ft | 410 kts | 191° |
| 2026-05-05 20:55 | 49.29499 | 13.27850 | 33833 ft | 409 kts | 190° |
| 2026-05-05 20:55 | 49.23886 | 13.26515 | 33833 ft | 408 kts | 191° |
| 2026-05-05 20:56 | 49.18292 | 13.25132 | 33826 ft | 407 kts | 191° |
| 2026-05-05 20:56 | 49.12711 | 13.23710 | 33826 ft | 406 kts | 191° |
| 2026-05-05 20:57 | 49.07134 | 13.22295 | 33829 ft | 406 kts | 191° |
| 2026-05-05 20:57 | 49.01567 | 13.20903 | 33832 ft | 405 kts | 191° |
| 2026-05-05 20:58 | 48.96000 | 13.19516 | 33838 ft | 405 kts | 192° |
| 2026-05-05 20:58 | 48.90438 | 13.18128 | 33840 ft | 404 kts | 192° |
| 2026-05-05 20:59 | 48.84887 | 13.16751 | 33842 ft | 404 kts | 192° |
| 2026-05-05 20:59 | 48.79331 | 13.15371 | 33841 ft | 404 kts | 192° |
| 2026-05-05 21:00 | 48.73810 | 13.14004 | 33837 ft | 404 kts | 192° |
| 2026-05-05 21:00 | 48.68255 | 13.12639 | 33841 ft | 404 kts | 192° |
| 2026-05-05 21:01 | 48.62702 | 13.11273 | 33835 ft | 404 kts | 192° |
| 2026-05-05 21:01 | 48.57140 | 13.09907 | 33813 ft | 405 kts | 191° |
| 2026-05-05 21:02 | 48.51561 | 13.08544 | 33824 ft | 406 kts | 192° |
| 2026-05-05 21:02 | 48.45979 | 13.07164 | 33836 ft | 407 kts | 192° |
| 2026-05-05 21:03 | 48.40390 | 13.05799 | 33849 ft | 407 kts | 192° |
| 2026-05-05 21:03 | 48.34827 | 13.04449 | 33857 ft | 407 kts | 191° |
| 2026-05-05 21:04 | 48.29230 | 13.03090 | 33864 ft | 407 kts | 192° |
| 2026-05-05 21:04 | 48.23596 | 13.02042 | 33866 ft | 410 kts | 182° |
| 2026-05-05 21:05 | 48.17931 | 13.03371 | 33863 ft | 416 kts | 171° |
| 2026-05-05 21:05 | 48.12334 | 13.05367 | 33864 ft | 416 kts | 171° |
| 2026-05-05 21:06 | 48.06701 | 13.07351 | 33868 ft | 415 kts | 171° |
| 2026-05-05 21:06 | 48.01067 | 13.09327 | 33863 ft | 415 kts | 171° |
| 2026-05-05 21:07 | 47.95441 | 13.11299 | 33871 ft | 416 kts | 171° |
| 2026-05-05 21:07 | 47.89807 | 13.13270 | 33863 ft | 416 kts | 171° |
| 2026-05-05 21:08 | 47.84155 | 13.15239 | 33860 ft | 417 kts | 171° |
| 2026-05-05 21:08 | 47.78500 | 13.17211 | 33830 ft | 418 kts | 171° |
| 2026-05-05 21:09 | 47.72865 | 13.19167 | 33839 ft | 419 kts | 171° |
| 2026-05-05 21:09 | 47.67187 | 13.21139 | 33837 ft | 419 kts | 171° |
| 2026-05-05 21:10 | 47.61501 | 13.23120 | 33840 ft | 420 kts | 171° |
| 2026-05-05 21:10 | 47.55784 | 13.25095 | 33845 ft | 421 kts | 171° |
| 2026-05-05 21:11 | 47.50076 | 13.27057 | 33856 ft | 422 kts | 171° |
| 2026-05-05 21:11 | 47.44351 | 13.29017 | 33873 ft | 422 kts | 171° |
| 2026-05-05 21:12 | 47.38624 | 13.30979 | 33865 ft | 422 kts | 171° |
| 2026-05-05 21:12 | 47.32850 | 13.31995 | 33879 ft | 415 kts | 187° |
| 2026-05-05 21:13 | 47.27288 | 13.30308 | 33893 ft | 408 kts | 201° |
| 2026-05-05 21:13 | 47.21879 | 13.27698 | 33883 ft | 409 kts | 201° |
| 2026-05-05 21:14 | 47.16459 | 13.25086 | 33902 ft | 410 kts | 202° |
| 2026-05-05 21:14 | 47.11029 | 13.22478 | 33930 ft | 410 kts | 202° |
| 2026-05-05 21:15 | 47.05604 | 13.19875 | 33932 ft | 410 kts | 202° |
| 2026-05-05 21:15 | 47.00181 | 13.17268 | 33946 ft | 410 kts | 203° |
| 2026-05-05 21:16 | 46.94804 | 13.14699 | 33978 ft | 409 kts | 203° |
| 2026-05-05 21:16 | 46.89398 | 13.12120 | 33976 ft | 408 kts | 203° |
| 2026-05-05 21:17 | 46.83991 | 13.09532 | 33990 ft | 409 kts | 203° |
| 2026-05-05 21:17 | 46.78601 | 13.06970 | 34016 ft | 406 kts | 204° |
| 2026-05-05 21:18 | 46.73234 | 13.04419 | 34019 ft | 405 kts | 204° |
| 2026-05-05 21:18 | 46.67890 | 13.01893 | 34026 ft | 404 kts | 204° |
| 2026-05-05 21:19 | 46.62595 | 12.99385 | 34024 ft | 402 kts | 204° |
| 2026-05-05 21:19 | 46.57278 | 12.96887 | 34035 ft | 401 kts | 204° |
| 2026-05-05 21:20 | 46.51976 | 12.94393 | 34036 ft | 399 kts | 205° |
| 2026-05-05 21:20 | 46.46694 | 12.91920 | 34037 ft | 398 kts | 204° |
| 2026-05-05 21:21 | 46.42319 | 12.89861 | 34023 ft | 398 kts | 205° |
| 2026-05-05 21:21 | 46.37060 | 12.87393 | 34037 ft | 397 kts | 204° |
| 2026-05-05 21:22 | 46.31818 | 12.84950 | 34016 ft | 396 kts | 204° |
| 2026-05-05 21:22 | 46.26562 | 12.82503 | 34017 ft | 396 kts | 204° |
| 2026-05-05 21:23 | 46.21307 | 12.80056 | 34011 ft | 396 kts | 204° |
| 2026-05-05 21:23 | 46.16066 | 12.77622 | 34012 ft | 396 kts | 204° |
| 2026-05-05 21:24 | 46.10857 | 12.75208 | 34012 ft | 395 kts | 204° |
| 2026-05-05 21:24 | 46.05613 | 12.72782 | 34011 ft | 395 kts | 204° |
| 2026-05-05 21:25 | 46.00372 | 12.70373 | 34011 ft | 395 kts | 204° |
| 2026-05-05 21:25 | 45.95135 | 12.67966 | 34011 ft | 395 kts | 204° |
| 2026-05-05 21:26 | 45.89897 | 12.65558 | 34014 ft | 395 kts | 204° |
| 2026-05-05 21:26 | 45.84653 | 12.63163 | 34001 ft | 395 kts | 204° |
| 2026-05-05 21:27 | 45.79447 | 12.60788 | 34007 ft | 394 kts | 204° |
| 2026-05-05 21:27 | 45.74212 | 12.58395 | 34011 ft | 394 kts | 204° |
| 2026-05-05 21:28 | 45.68983 | 12.56009 | 34011 ft | 394 kts | 204° |
| 2026-05-05 21:28 | 45.63754 | 12.53625 | 34000 ft | 394 kts | 204° |
| 2026-05-05 21:29 | 45.58529 | 12.51245 | 34005 ft | 394 kts | 204° |
| 2026-05-05 21:29 | 45.53308 | 12.48884 | 34008 ft | 394 kts | 204° |
| 2026-05-05 21:30 | 45.48082 | 12.46525 | 34007 ft | 393 kts | 204° |
| 2026-05-05 21:30 | 45.42866 | 12.44163 | 34012 ft | 393 kts | 204° |
| 2026-05-05 21:31 | 45.37685 | 12.41824 | 34012 ft | 393 kts | 204° |
| 2026-05-05 21:31 | 45.32473 | 12.39484 | 34011 ft | 393 kts | 204° |
| 2026-05-05 21:32 | 45.27263 | 12.37148 | 33995 ft | 392 kts | 204° |
| 2026-05-05 21:32 | 45.22054 | 12.34819 | 33998 ft | 392 kts | 204° |
| 2026-05-05 21:33 | 45.16841 | 12.32489 | 33999 ft | 392 kts | 204° |
| 2026-05-05 21:33 | 45.11635 | 12.30162 | 34000 ft | 392 kts | 204° |
| 2026-05-05 21:34 | 45.06424 | 12.27854 | 33983 ft | 393 kts | 203° |
| 2026-05-05 21:34 | 45.01121 | 12.25842 | 33986 ft | 396 kts | 201° |
| 2026-05-05 21:35 | 44.95767 | 12.24019 | 33988 ft | 396 kts | 200° |
| 2026-05-05 21:35 | 44.90452 | 12.22181 | 33994 ft | 396 kts | 201° |
| 2026-05-05 21:36 | 44.85115 | 12.20272 | 33994 ft | 395 kts | 201° |
| 2026-05-05 21:36 | 44.79789 | 12.18344 | 33998 ft | 395 kts | 201° |
| 2026-05-05 21:37 | 44.74458 | 12.16433 | 33997 ft | 395 kts | 201° |
| 2026-05-05 21:37 | 44.69126 | 12.14535 | 33984 ft | 395 kts | 201° |
| 2026-05-05 21:38 | 44.63792 | 12.12641 | 33986 ft | 395 kts | 201° |
| 2026-05-05 21:38 | 44.58455 | 12.10750 | 33991 ft | 396 kts | 201° |
| 2026-05-05 21:39 | 44.53121 | 12.08855 | 33998 ft | 395 kts | 201° |
| 2026-05-05 21:39 | 44.47787 | 12.06965 | 34002 ft | 395 kts | 201° |
| 2026-05-05 21:40 | 44.42457 | 12.05086 | 34010 ft | 395 kts | 201° |
| 2026-05-05 21:40 | 44.37125 | 12.03209 | 34010 ft | 395 kts | 201° |
| 2026-05-05 21:41 | 44.31796 | 12.01340 | 34002 ft | 395 kts | 201° |
| 2026-05-05 21:41 | 44.26495 | 11.99480 | 34001 ft | 395 kts | 201° |
| 2026-05-05 21:42 | 44.21157 | 11.97611 | 34002 ft | 395 kts | 201° |
| 2026-05-05 21:42 | 44.15824 | 11.95746 | 34003 ft | 395 kts | 201° |
| 2026-05-05 21:43 | 44.10492 | 11.93881 | 34005 ft | 395 kts | 201° |
| 2026-05-05 21:43 | 44.05160 | 11.92021 | 34002 ft | 395 kts | 201° |
| 2026-05-05 21:44 | 43.99824 | 11.90170 | 33999 ft | 395 kts | 201° |
| 2026-05-05 21:44 | 43.94480 | 11.88318 | 33982 ft | 396 kts | 201° |
| 2026-05-05 21:45 | 43.89155 | 11.86460 | 33993 ft | 397 kts | 201° |
| 2026-05-05 21:45 | 43.83789 | 11.84601 | 34002 ft | 398 kts | 201° |
| 2026-05-05 21:46 | 43.78340 | 11.83089 | 33986 ft | 407 kts | 190° |
| 2026-05-05 21:46 | 43.72597 | 11.84038 | 33994 ft | 425 kts | 175° |
| 2026-05-05 21:47 | 43.66836 | 11.85913 | 34010 ft | 425 kts | 175° |
| 2026-05-05 21:47 | 43.61065 | 11.87763 | 34019 ft | 426 kts | 175° |
| 2026-05-05 21:48 | 43.58175 | 11.88678 | 33793 ft | 427 kts | 175° |
| 2026-05-05 21:48 | 43.55276 | 11.89598 | 33519 ft | 427 kts | 175° |
| 2026-05-05 21:48 | 43.52376 | 11.90517 | 32843 ft | 430 kts | 175° |
| 2026-05-05 21:48 | 43.49465 | 11.91440 | 32339 ft | 425 kts | 174° |
| 2026-05-05 21:49 | 43.46634 | 11.92346 | 31814 ft | 421 kts | 174° |
| 2026-05-05 21:49 | 43.43796 | 11.93253 | 31295 ft | 417 kts | 174° |
| 2026-05-05 21:49 | 43.40981 | 11.94146 | 30780 ft | 413 kts | 173° |
| 2026-05-05 21:49 | 43.38192 | 11.95027 | 30272 ft | 409 kts | 174° |
| 2026-05-05 21:50 | 43.35433 | 11.95896 | 29724 ft | 404 kts | 173° |
| 2026-05-05 21:50 | 43.32712 | 11.96753 | 29242 ft | 399 kts | 173° |
| 2026-05-05 21:50 | 43.30025 | 11.97600 | 28755 ft | 394 kts | 173° |
| 2026-05-05 21:50 | 43.27372 | 11.98434 | 28283 ft | 388 kts | 173° |
| 2026-05-05 21:51 | 43.24751 | 11.99259 | 27813 ft | 384 kts | 173° |
| 2026-05-05 21:51 | 43.22169 | 12.00073 | 27355 ft | 379 kts | 173° |
| 2026-05-05 21:51 | 43.19615 | 12.00876 | 26894 ft | 374 kts | 173° |
| 2026-05-05 21:51 | 43.17095 | 12.01667 | 26462 ft | 369 kts | 172° |
| 2026-05-05 21:52 | 43.12155 | 12.03213 | 25615 ft | 360 kts | 172° |
| 2026-05-05 21:52 | 43.09721 | 12.03970 | 25208 ft | 357 kts | 172° |
| 2026-05-05 21:52 | 43.07305 | 12.04724 | 24805 ft | 354 kts | 171° |
| 2026-05-05 21:53 | 43.04939 | 12.05461 | 24417 ft | 352 kts | 171° |
| 2026-05-05 21:53 | 43.02557 | 12.06203 | 24026 ft | 350 kts | 171° |
| 2026-05-05 21:53 | 43.00195 | 12.06941 | 23623 ft | 347 kts | 170° |
| 2026-05-05 21:53 | 42.97847 | 12.07675 | 23190 ft | 345 kts | 171° |
| 2026-05-05 21:54 | 42.95513 | 12.08402 | 22799 ft | 343 kts | 171° |
| 2026-05-05 21:54 | 42.93190 | 12.09125 | 22417 ft | 341 kts | 171° |
| 2026-05-05 21:54 | 42.90878 | 12.09847 | 22030 ft | 339 kts | 171° |
| 2026-05-05 21:54 | 42.88584 | 12.10561 | 21641 ft | 338 kts | 171° |
| 2026-05-05 21:55 | 42.86299 | 12.11274 | 21251 ft | 336 kts | 171° |
| 2026-05-05 21:55 | 42.84025 | 12.11977 | 20855 ft | 334 kts | 171° |
| 2026-05-05 21:55 | 42.81766 | 12.12674 | 20461 ft | 333 kts | 171° |
| 2026-05-05 21:55 | 42.79514 | 12.13373 | 20063 ft | 331 kts | 171° |
| 2026-05-05 21:56 | 42.77269 | 12.14067 | 19666 ft | 329 kts | 171° |
| 2026-05-05 21:56 | 42.75034 | 12.14757 | 19342 ft | 325 kts | 172° |
| 2026-05-05 21:56 | 42.72837 | 12.15435 | 19255 ft | 324 kts | 172° |
| 2026-05-05 21:56 | 42.70637 | 12.16139 | 19118 ft | 326 kts | 167° |
| 2026-05-05 21:57 | 42.68543 | 12.17370 | 18854 ft | 333 kts | 154° |
| 2026-05-05 21:57 | 42.66574 | 12.18944 | 18457 ft | 331 kts | 154° |
| 2026-05-05 21:57 | 42.64600 | 12.20544 | 18038 ft | 329 kts | 154° |
| 2026-05-05 21:57 | 42.62641 | 12.22131 | 17656 ft | 327 kts | 154° |
| 2026-05-05 21:58 | 42.60690 | 12.23703 | 17267 ft | 325 kts | 154° |
| 2026-05-05 21:58 | 42.58746 | 12.25259 | 16909 ft | 323 kts | 154° |
| 2026-05-05 21:58 | 42.56813 | 12.26800 | 16530 ft | 321 kts | 154° |
| 2026-05-05 21:58 | 42.54892 | 12.28332 | 16159 ft | 319 kts | 154° |
| 2026-05-05 21:59 | 42.52983 | 12.29850 | 15801 ft | 317 kts | 154° |
| 2026-05-05 21:59 | 42.51086 | 12.31362 | 15438 ft | 315 kts | 154° |
| 2026-05-05 21:59 | 42.49227 | 12.32848 | 15084 ft | 313 kts | 154° |
| 2026-05-05 21:59 | 42.47351 | 12.34345 | 14721 ft | 312 kts | 154° |
| 2026-05-05 22:00 | 42.45486 | 12.35831 | 14364 ft | 310 kts | 154° |
| 2026-05-05 22:00 | 42.43634 | 12.37304 | 14010 ft | 308 kts | 154° |
| 2026-05-05 22:00 | 42.41791 | 12.38769 | 13631 ft | 306 kts | 154° |
| 2026-05-05 22:00 | 42.39963 | 12.40223 | 13304 ft | 302 kts | 154° |
| 2026-05-05 22:01 | 42.38189 | 12.41636 | 13164 ft | 290 kts | 154° |
| 2026-05-05 22:01 | 42.36464 | 12.42987 | 12916 ft | 281 kts | 158° |
| 2026-05-05 22:01 | 42.34671 | 12.43892 | 12572 ft | 273 kts | 167° |
| 2026-05-05 22:01 | 42.32859 | 12.44642 | 12300 ft | 273 kts | 167° |
| 2026-05-05 22:02 | 42.31048 | 12.45399 | 12044 ft | 272 kts | 166° |
| 2026-05-05 22:02 | 42.29243 | 12.46158 | 11802 ft | 271 kts | 166° |
| 2026-05-05 22:02 | 42.27449 | 12.46916 | 11591 ft | 269 kts | 166° |
| 2026-05-05 22:02 | 42.25662 | 12.47670 | 11348 ft | 269 kts | 166° |
| 2026-05-05 22:03 | 42.23871 | 12.48132 | 11117 ft | 255 kts | 187° |
| 2026-05-05 22:03 | 42.22247 | 12.47414 | 10815 ft | 244 kts | 218° |
| 2026-05-05 22:03 | 42.21176 | 12.45697 | 10511 ft | 241 kts | 246° |
| 2026-05-05 22:03 | 42.20646 | 12.43541 | 10227 ft | 243 kts | 251° |
| 2026-05-05 22:04 | 42.20149 | 12.41362 | 9924 ft | 243 kts | 251° |
| 2026-05-05 22:04 | 42.19650 | 12.39191 | 9627 ft | 241 kts | 251° |
| 2026-05-05 22:04 | 42.19262 | 12.37029 | 9332 ft | 241 kts | 267° |
| 2026-05-05 22:04 | 42.19650 | 12.34848 | 9058 ft | 246 kts | 299° |
| 2026-05-05 22:05 | 42.20896 | 12.33269 | 8943 ft | 254 kts | 332° |
| 2026-05-05 22:05 | 42.22610 | 12.32491 | 8844 ft | 264 kts | 340° |
| 2026-05-05 22:05 | 42.24374 | 12.31766 | 8741 ft | 265 kts | 339° |
| 2026-05-05 22:05 | 42.26128 | 12.30968 | 8458 ft | 265 kts | 330° |
| 2026-05-05 22:06 | 42.27679 | 12.29667 | 7997 ft | 261 kts | 311° |
| 2026-05-05 22:06 | 42.28639 | 12.27654 | 7496 ft | 255 kts | 282° |
| 2026-05-05 22:06 | 42.28726 | 12.25320 | 7011 ft | 250 kts | 255° |
| 2026-05-05 22:06 | 42.28019 | 12.23210 | 6520 ft | 249 kts | 230° |
| 2026-05-05 22:07 | 42.26694 | 12.21731 | 6025 ft | 249 kts | 205° |
| 2026-05-05 22:07 | 42.25051 | 12.21143 | 5514 ft | 243 kts | 188° |
| 2026-05-05 22:07 | 42.23387 | 12.20832 | 5020 ft | 241 kts | 188° |
| 2026-05-05 22:07 | 42.21725 | 12.20521 | 4544 ft | 238 kts | 188° |
| 2026-05-05 22:08 | 42.20157 | 12.20223 | 4413 ft | 225 kts | 188° |
| 2026-05-05 22:08 | 42.18641 | 12.19932 | 4281 ft | 215 kts | 188° |
| 2026-05-05 22:08 | 42.17185 | 12.19653 | 4154 ft | 207 kts | 189° |
| 2026-05-05 22:08 | 42.15787 | 12.19386 | 4050 ft | 200 kts | 189° |
| 2026-05-05 22:09 | 42.14425 | 12.19098 | 3947 ft | 197 kts | 191° |
| 2026-05-05 22:09 | 42.13084 | 12.18716 | 3850 ft | 197 kts | 193° |
| 2026-05-05 22:09 | 42.11746 | 12.18304 | 3751 ft | 197 kts | 193° |
| 2026-05-05 22:09 | 42.10414 | 12.17889 | 3653 ft | 195 kts | 193° |
| 2026-05-05 22:10 | 42.09092 | 12.17480 | 3557 ft | 194 kts | 193° |
| 2026-05-05 22:10 | 42.07765 | 12.17093 | 3465 ft | 195 kts | 188° |
| 2026-05-05 22:10 | 42.06867 | 12.17024 | 3411 ft | 195 kts | 179° |
| 2026-05-05 22:10 | 42.05533 | 12.17344 | 3310 ft | 195 kts | 166° |
| 2026-05-05 22:11 | 42.04239 | 12.17884 | 3208 ft | 195 kts | 165° |
| 2026-05-05 22:11 | 42.02948 | 12.18433 | 3115 ft | 194 kts | 165° |
| 2026-05-05 22:11 | 42.01696 | 12.18963 | 3012 ft | 182 kts | 164° |
| 2026-05-05 22:11 | 42.00133 | 12.19622 | 3012 ft | 175 kts | 164° |
| 2026-05-05 22:12 | 41.99351 | 12.19952 | 2967 ft | 174 kts | 164° |
| 2026-05-05 22:12 | 41.98200 | 12.20436 | 2802 ft | 173 kts | 164° |
| 2026-05-05 22:12 | 41.97073 | 12.20910 | 2599 ft | 171 kts | 163° |
| 2026-05-05 22:12 | 41.95940 | 12.21387 | 2400 ft | 169 kts | 166° |
| 2026-05-05 22:13 | 41.94857 | 12.21843 | 2156 ft | 155 kts | 165° |
| 2026-05-05 22:13 | 41.93871 | 12.22258 | 1955 ft | 144 kts | 165° |
| 2026-05-05 22:13 | 41.92927 | 12.22654 | 1760 ft | 140 kts | 164° |
| 2026-05-05 22:13 | 41.92003 | 12.23042 | 1566 ft | 139 kts | 163° |
| 2026-05-05 22:14 | 41.91073 | 12.23432 | 1377 ft | 141 kts | 163° |
| 2026-05-05 22:14 | 41.90135 | 12.23824 | 1194 ft | 141 kts | 164° |
| 2026-05-05 22:14 | 41.89197 | 12.24210 | 958 ft | 141 kts | 163° |
| 2026-05-05 22:14 | 41.88263 | 12.24609 | 742 ft | 141 kts | 162° |
| 2026-05-05 22:15 | 41.87331 | 12.25012 | 511 ft | 144 kts | 160° |
| 2026-05-05 22:15 | 41.86374 | 12.25412 | 411 ft | 144 kts | 162° |
| 2026-05-05 22:15 | 41.85427 | 12.25822 | 243 ft | 144 kts | 162° |
| 2026-05-05 22:15 | 41.84466 | 12.26219 | 59 ft | 146 kts | 162° |
| 2026-05-05 22:16 | 41.83548 | 12.26593 | 15 ft | 126 kts | 162° |
| 2026-05-05 22:16 | 41.82890 | 12.26868 | 13 ft | 75 kts | 162° |
| 2026-05-05 22:16 | 41.82530 | 12.27016 | 11 ft | 45 kts | 163° |
| 2026-05-05 22:16 | 41.82295 | 12.27112 | 9 ft | 30 kts | 163° |
| 2026-05-05 22:17 | 41.82093 | 12.27140 | 11 ft | 28 kts | 184° |
| 2026-05-05 22:17 | 41.81912 | 12.27094 | 11 ft | 22 kts | 193° |
| 2026-05-05 22:17 | 41.81778 | 12.27053 | 11 ft | 16 kts | 190° |
| 2026-05-05 22:17 | 41.81676 | 12.27050 | 12 ft | 14 kts | 167° |
| 2026-05-05 22:18 | 41.81583 | 12.27088 | 12 ft | 14 kts | 162° |
| 2026-05-05 22:18 | 41.81493 | 12.27126 | 12 ft | 13 kts | 162° |
| 2026-05-05 22:18 | 41.81397 | 12.27167 | 12 ft | 18 kts | 162° |
| 2026-05-05 22:18 | 41.81271 | 12.27220 | 12 ft | 19 kts | 162° |
| 2026-05-05 22:19 | 41.81147 | 12.27273 | 12 ft | 18 kts | 163° |
| 2026-05-05 22:19 | 41.81030 | 12.27321 | 12 ft | 17 kts | 163° |
| 2026-05-05 22:19 | 41.80932 | 12.27352 | 12 ft | 13 kts | 176° |
| 2026-05-05 22:19 | 41.80841 | 12.27335 | 12 ft | 13 kts | 190° |
| 2026-05-05 22:20 | 41.80755 | 12.27315 | 12 ft | 12 kts | 190° |
| 2026-05-05 22:20 | 41.80678 | 12.27275 | 13 ft | 12 kts | 224° |
| 2026-05-05 22:20 | 41.80645 | 12.27186 | 12 ft | 11 kts | 250° |
| 2026-05-05 22:20 | 41.80622 | 12.27099 | 13 ft | 9 kts | 251° |
| 2026-05-05 22:21 | 41.80602 | 12.27027 | 15 ft | 7 kts | 249° |
| 2026-05-05 22:21 | 41.80585 | 12.26967 | 15 ft | 6 kts | 249° |
| 2026-05-05 22:21 | 41.80566 | 12.26897 | 13 ft | 12 kts | 250° |
| 2026-05-05 22:21 | 41.80531 | 12.26771 | 14 ft | 14 kts | 249° |
| 2026-05-05 22:22 | 41.80501 | 12.26662 | 17 ft | 10 kts | 250° |
| 2026-05-05 22:22 | 41.80482 | 12.26592 | 15 ft | 9 kts | 250° |
| 2026-05-05 22:22 | 41.80461 | 12.26513 | 15 ft | 9 kts | 250° |
| 2026-05-05 22:22 | 41.80431 | 12.26414 | 15 ft | 12 kts | 240° |
| 2026-05-05 22:23 | 41.80363 | 12.26363 | 14 ft | 12 kts | 181° |
| 2026-05-05 22:23 | 41.80286 | 12.26399 | 14 ft | 12 kts | 158° |
| 2026-05-05 22:23 | 41.80210 | 12.26401 | 14 ft | 11 kts | 199° |
| 2026-05-05 22:23 | 41.80142 | 12.26361 | 14 ft | 10 kts | 205° |
| 2026-05-05 22:24 | 41.80080 | 12.26322 | 14 ft | 10 kts | 205° |
| 2026-05-05 22:24 | 41.80022 | 12.26286 | 14 ft | 9 kts | 205° |
| 2026-05-05 22:24 | 41.79954 | 12.26245 | 14 ft | 15 kts | 205° |
| 2026-05-05 22:24 | 41.79852 | 12.26181 | 14 ft | 16 kts | 205° |
| 2026-05-05 22:25 | 41.79756 | 12.26114 | 14 ft | 15 kts | 214° |
| 2026-05-05 22:25 | 41.79667 | 12.26051 | 14 ft | 14 kts | 205° |
| 2026-05-05 22:25 | 41.79584 | 12.25999 | 15 ft | 11 kts | 205° |
| 2026-05-05 22:25 | 41.79549 | 12.25977 | 14 ft | 3 kts | 205° |
| 2026-05-05 22:26 | 41.79533 | 12.25954 | 14 ft | 3 kts | 256° |